sensor_id;sensor_type;location;lat;lon;timestamp;P1;durP1;ratioP1;P2;durP2;ratioP2
40907;SDS011;51055;59.436;24.778;2023-06-04T00:02:26;3.83;;;1.52;;
40907;SDS011;51055;59.436;24.778;2023-06-04T00:04:53;3.67;;;1.50;;
40907;SDS011;51055;59.436;24.778;2023-06-04T00:07:21;3.88;;;1.70;;
40907;SDS011;51055;59.436;24.778;2023-06-04T00:09:49;3.50;;;1.40;;
40907;SDS011;51055;59.436;24.778;2023-06-04T00:12:16;3.90;;;1.40;;
40907;SDS011;51055;59.436;24.778;2023-06-04T00:14:44;3.72;;;1.75;;
40907;SDS011;51055;59.436;24.778;2023-06-04T00:17:12;4.13;;;1.30;;
40907;SDS011;51055;59.436;24.778;2023-06-04T00:19:39;3.42;;;1.38;;
40907;SDS011;51055;59.436;24.778;2023-06-04T00:22:08;3.35;;;1.30;;
40907;SDS011;51055;59.436;24.778;2023-06-04T00:24:37;3.30;;;1.40;;
40907;SDS011;51055;59.436;24.778;2023-06-04T00:27:06;4.20;;;1.40;;
40907;SDS011;51055;59.436;24.778;2023-06-04T00:29:36;3.83;;;1.42;;
40907;SDS011;51055;59.436;24.778;2023-06-04T00:32:03;4.63;;;1.65;;
40907;SDS011;51055;59.436;24.778;2023-06-04T00:34:31;5.77;;;1.63;;
40907;SDS011;51055;59.436;24.778;2023-06-04T00:36:59;4.50;;;1.38;;
40907;SDS011;51055;59.436;24.778;2023-06-04T00:39:29;4.88;;;1.60;;
40907;SDS011;51055;59.436;24.778;2023-06-04T00:41:57;2.55;;;1.50;;
40907;SDS011;51055;59.436;24.778;2023-06-04T00:44:25;4.45;;;1.65;;
40907;SDS011;51055;59.436;24.778;2023-06-04T00:46:53;2.58;;;1.00;;
40907;SDS011;51055;59.436;24.778;2023-06-04T00:49:22;4.55;;;1.60;;
40907;SDS011;51055;59.436;24.778;2023-06-04T00:51:49;3.53;;;1.50;;
40907;SDS011;51055;59.436;24.778;2023-06-04T00:54:18;4.30;;;1.90;;
40907;SDS011;51055;59.436;24.778;2023-06-04T00:56:47;3.22;;;1.38;;
40907;SDS011;51055;59.436;24.778;2023-06-04T00:59:15;4.55;;;1.35;;
40907;SDS011;51055;59.436;24.778;2023-06-04T01:04:20;3.67;;;1.52;;
40907;SDS011;51055;59.436;24.778;2023-06-04T01:06:53;4.57;;;1.60;;
40907;SDS011;51055;59.436;24.778;2023-06-04T01:09:27;4.47;;;1.48;;
40907;SDS011;51055;59.436;24.778;2023-06-04T01:11:55;4.50;;;1.50;;
40907;SDS011;51055;59.436;24.778;2023-06-04T01:14:25;3.65;;;1.45;;
40907;SDS011;51055;59.436;24.778;2023-06-04T01:16:55;4.20;;;1.60;;
40907;SDS011;51055;59.436;24.778;2023-06-04T01:22:10;4.20;;;1.40;;
40907;SDS011;51055;59.436;24.778;2023-06-04T01:24:52;3.30;;;1.45;;
40907;SDS011;51055;59.436;24.778;2023-06-04T01:27:23;3.92;;;1.50;;
40907;SDS011;51055;59.436;24.778;2023-06-04T01:29:51;4.13;;;1.67;;
40907;SDS011;51055;59.436;24.778;2023-06-04T01:32:19;3.45;;;1.50;;
40907;SDS011;51055;59.436;24.778;2023-06-04T01:34:47;7.80;;;1.90;;
40907;SDS011;51055;59.436;24.778;2023-06-04T01:37:14;3.30;;;1.45;;
40907;SDS011;51055;59.436;24.778;2023-06-04T01:39:43;4.22;;;1.67;;
40907;SDS011;51055;59.436;24.778;2023-06-04T01:42:11;5.00;;;1.60;;
40907;SDS011;51055;59.436;24.778;2023-06-04T01:44:39;5.57;;;1.70;;
40907;SDS011;51055;59.436;24.778;2023-06-04T01:47:07;4.32;;;1.77;;
40907;SDS011;51055;59.436;24.778;2023-06-04T01:49:34;3.25;;;1.50;;
40907;SDS011;51055;59.436;24.778;2023-06-04T01:52:02;3.83;;;1.73;;
40907;SDS011;51055;59.436;24.778;2023-06-04T01:54:29;4.93;;;1.63;;
40907;SDS011;51055;59.436;24.778;2023-06-04T01:56:59;4.28;;;1.63;;
40907;SDS011;51055;59.436;24.778;2023-06-04T01:59:27;3.28;;;1.63;;
40907;SDS011;51055;59.436;24.778;2023-06-04T02:01:55;3.17;;;1.65;;
40907;SDS011;51055;59.436;24.778;2023-06-04T02:04:23;3.05;;;1.60;;
40907;SDS011;51055;59.436;24.778;2023-06-04T02:06:50;4.82;;;1.80;;
40907;SDS011;51055;59.436;24.778;2023-06-04T02:09:18;4.30;;;1.60;;
40907;SDS011;51055;59.436;24.778;2023-06-04T02:11:46;3.05;;;1.58;;
40907;SDS011;51055;59.436;24.778;2023-06-04T02:14:14;5.30;;;1.77;;
40907;SDS011;51055;59.436;24.778;2023-06-04T02:16:41;3.55;;;1.52;;
40907;SDS011;51055;59.436;24.778;2023-06-04T02:19:09;4.05;;;1.70;;
40907;SDS011;51055;59.436;24.778;2023-06-04T02:21:40;4.38;;;1.60;;
40907;SDS011;51055;59.436;24.778;2023-06-04T02:24:07;3.83;;;1.50;;
40907;SDS011;51055;59.436;24.778;2023-06-04T02:26:35;3.33;;;1.50;;
40907;SDS011;51055;59.436;24.778;2023-06-04T02:29:03;4.85;;;1.80;;
40907;SDS011;51055;59.436;24.778;2023-06-04T02:31:31;3.17;;;1.50;;
40907;SDS011;51055;59.436;24.778;2023-06-04T02:33:58;5.05;;;1.73;;
40907;SDS011;51055;59.436;24.778;2023-06-04T02:36:26;2.33;;;1.20;;
40907;SDS011;51055;59.436;24.778;2023-06-04T02:38:56;4.13;;;1.60;;
40907;SDS011;51055;59.436;24.778;2023-06-04T02:41:23;2.65;;;1.30;;
40907;SDS011;51055;59.436;24.778;2023-06-04T02:43:52;4.20;;;1.88;;
40907;SDS011;51055;59.436;24.778;2023-06-04T02:46:20;5.07;;;1.80;;
40907;SDS011;51055;59.436;24.778;2023-06-04T02:48:47;3.40;;;1.58;;
40907;SDS011;51055;59.436;24.778;2023-06-04T02:51:15;3.75;;;1.60;;
40907;SDS011;51055;59.436;24.778;2023-06-04T02:53:43;4.03;;;1.65;;
40907;SDS011;51055;59.436;24.778;2023-06-04T02:56:11;4.13;;;1.50;;
40907;SDS011;51055;59.436;24.778;2023-06-04T02:58:48;5.05;;;1.50;;
40907;SDS011;51055;59.436;24.778;2023-06-04T03:01:23;3.90;;;2.08;;
40907;SDS011;51055;59.436;24.778;2023-06-04T03:03:53;3.72;;;1.70;;
40907;SDS011;51055;59.436;24.778;2023-06-04T03:06:22;4.63;;;1.85;;
40907;SDS011;51055;59.436;24.778;2023-06-04T03:08:52;3.03;;;1.45;;
40907;SDS011;51055;59.436;24.778;2023-06-04T03:11:20;5.35;;;2.00;;
40907;SDS011;51055;59.436;24.778;2023-06-04T03:13:48;3.83;;;2.20;;
40907;SDS011;51055;59.436;24.778;2023-06-04T03:16:16;2.50;;;1.33;;
40907;SDS011;51055;59.436;24.778;2023-06-04T03:18:44;4.68;;;1.88;;
40907;SDS011;51055;59.436;24.778;2023-06-04T03:21:12;4.72;;;1.75;;
40907;SDS011;51055;59.436;24.778;2023-06-04T03:23:40;5.22;;;1.70;;
40907;SDS011;51055;59.436;24.778;2023-06-04T03:26:08;3.85;;;1.60;;
40907;SDS011;51055;59.436;24.778;2023-06-04T03:28:35;5.15;;;1.70;;
40907;SDS011;51055;59.436;24.778;2023-06-04T03:31:03;4.15;;;1.75;;
40907;SDS011;51055;59.436;24.778;2023-06-04T03:33:32;4.15;;;1.60;;
40907;SDS011;51055;59.436;24.778;2023-06-04T03:36:00;3.80;;;1.70;;
40907;SDS011;51055;59.436;24.778;2023-06-04T03:38:27;5.95;;;1.70;;
40907;SDS011;51055;59.436;24.778;2023-06-04T03:40:55;4.63;;;1.83;;
40907;SDS011;51055;59.436;24.778;2023-06-04T03:43:23;3.78;;;1.73;;
40907;SDS011;51055;59.436;24.778;2023-06-04T03:45:50;4.75;;;1.92;;
40907;SDS011;51055;59.436;24.778;2023-06-04T03:48:18;5.45;;;1.90;;
40907;SDS011;51055;59.436;24.778;2023-06-04T03:50:46;5.47;;;1.83;;
40907;SDS011;51055;59.436;24.778;2023-06-04T03:53:13;7.18;;;2.00;;
40907;SDS011;51055;59.436;24.778;2023-06-04T03:55:41;5.22;;;1.85;;
40907;SDS011;51055;59.436;24.778;2023-06-04T03:58:08;4.80;;;1.90;;
40907;SDS011;51055;59.436;24.778;2023-06-04T04:00:38;3.53;;;1.80;;
40907;SDS011;51055;59.436;24.778;2023-06-04T04:03:06;3.83;;;1.83;;
40907;SDS011;51055;59.436;24.778;2023-06-04T04:05:37;4.68;;;2.08;;
40907;SDS011;51055;59.436;24.778;2023-06-04T04:08:05;4.63;;;2.13;;
40907;SDS011;51055;59.436;24.778;2023-06-04T04:10:33;4.70;;;1.88;;
40907;SDS011;51055;59.436;24.778;2023-06-04T04:13:00;4.03;;;2.03;;
40907;SDS011;51055;59.436;24.778;2023-06-04T04:15:28;4.05;;;1.77;;
40907;SDS011;51055;59.436;24.778;2023-06-04T04:17:56;3.97;;;1.95;;
40907;SDS011;51055;59.436;24.778;2023-06-04T04:20:24;4.18;;;2.17;;
40907;SDS011;51055;59.436;24.778;2023-06-04T04:22:52;5.05;;;2.30;;
40907;SDS011;51055;59.436;24.778;2023-06-04T04:25:20;5.22;;;2.20;;
40907;SDS011;51055;59.436;24.778;2023-06-04T04:27:48;4.75;;;2.05;;
40907;SDS011;51055;59.436;24.778;2023-06-04T04:30:15;5.10;;;1.92;;
40907;SDS011;51055;59.436;24.778;2023-06-04T04:32:44;5.50;;;2.17;;
40907;SDS011;51055;59.436;24.778;2023-06-04T04:35:16;5.78;;;2.15;;
40907;SDS011;51055;59.436;24.778;2023-06-04T04:37:45;4.85;;;2.20;;
40907;SDS011;51055;59.436;24.778;2023-06-04T04:40:13;5.18;;;2.10;;
40907;SDS011;51055;59.436;24.778;2023-06-04T04:42:41;5.70;;;2.67;;
40907;SDS011;51055;59.436;24.778;2023-06-04T04:45:09;4.88;;;1.95;;
40907;SDS011;51055;59.436;24.778;2023-06-04T04:47:37;4.60;;;2.10;;
40907;SDS011;51055;59.436;24.778;2023-06-04T04:50:05;4.72;;;2.15;;
40907;SDS011;51055;59.436;24.778;2023-06-04T04:52:33;5.17;;;2.07;;
40907;SDS011;51055;59.436;24.778;2023-06-04T04:55:00;4.18;;;1.92;;
40907;SDS011;51055;59.436;24.778;2023-06-04T04:57:28;5.05;;;2.13;;
40907;SDS011;51055;59.436;24.778;2023-06-04T04:59:56;5.60;;;2.10;;
40907;SDS011;51055;59.436;24.778;2023-06-04T05:02:23;4.38;;;1.92;;
40907;SDS011;51055;59.436;24.778;2023-06-04T05:04:53;4.93;;;2.27;;
40907;SDS011;51055;59.436;24.778;2023-06-04T05:07:20;5.20;;;2.13;;
40907;SDS011;51055;59.436;24.778;2023-06-04T05:09:50;4.22;;;1.90;;
40907;SDS011;51055;59.436;24.778;2023-06-04T05:12:18;4.03;;;1.67;;
40907;SDS011;51055;59.436;24.778;2023-06-04T05:14:45;4.03;;;1.75;;
40907;SDS011;51055;59.436;24.778;2023-06-04T05:17:13;4.60;;;2.00;;
40907;SDS011;51055;59.436;24.778;2023-06-04T05:19:44;5.60;;;2.03;;
40907;SDS011;51055;59.436;24.778;2023-06-04T05:22:11;3.70;;;1.73;;
40907;SDS011;51055;59.436;24.778;2023-06-04T05:24:40;3.53;;;1.73;;
40907;SDS011;51055;59.436;24.778;2023-06-04T05:27:07;6.13;;;2.15;;
40907;SDS011;51055;59.436;24.778;2023-06-04T05:29:36;6.13;;;1.88;;
40907;SDS011;51055;59.436;24.778;2023-06-04T05:32:04;4.60;;;1.80;;
40907;SDS011;51055;59.436;24.778;2023-06-04T05:34:32;3.83;;;1.70;;
40907;SDS011;51055;59.436;24.778;2023-06-04T05:37:00;5.60;;;1.90;;
40907;SDS011;51055;59.436;24.778;2023-06-04T05:39:27;6.03;;;1.95;;
40907;SDS011;51055;59.436;24.778;2023-06-04T05:41:55;5.35;;;1.83;;
40907;SDS011;51055;59.436;24.778;2023-06-04T05:44:23;6.30;;;2.10;;
40907;SDS011;51055;59.436;24.778;2023-06-04T05:46:50;4.72;;;2.10;;
40907;SDS011;51055;59.436;24.778;2023-06-04T05:49:18;4.85;;;1.75;;
40907;SDS011;51055;59.436;24.778;2023-06-04T05:51:46;4.22;;;1.60;;
40907;SDS011;51055;59.436;24.778;2023-06-04T05:54:14;4.82;;;1.75;;
40907;SDS011;51055;59.436;24.778;2023-06-04T05:56:41;4.60;;;1.60;;
40907;SDS011;51055;59.436;24.778;2023-06-04T05:59:09;3.50;;;1.48;;
40907;SDS011;51055;59.436;24.778;2023-06-04T06:01:36;4.68;;;2.03;;
40907;SDS011;51055;59.436;24.778;2023-06-04T06:04:05;2.90;;;1.33;;
40907;SDS011;51055;59.436;24.778;2023-06-04T06:06:33;2.40;;;1.13;;
40907;SDS011;51055;59.436;24.778;2023-06-04T06:09:00;3.78;;;1.30;;
40907;SDS011;51055;59.436;24.778;2023-06-04T06:11:28;3.80;;;1.25;;
40907;SDS011;51055;59.436;24.778;2023-06-04T06:13:56;8.55;;;1.20;;
40907;SDS011;51055;59.436;24.778;2023-06-04T06:16:23;4.55;;;1.42;;
40907;SDS011;51055;59.436;24.778;2023-06-04T06:18:52;2.55;;;1.23;;
40907;SDS011;51055;59.436;24.778;2023-06-04T06:21:20;4.38;;;1.25;;
40907;SDS011;51055;59.436;24.778;2023-06-04T06:23:48;3.42;;;1.33;;
40907;SDS011;51055;59.436;24.778;2023-06-04T06:26:16;3.90;;;1.60;;
40907;SDS011;51055;59.436;24.778;2023-06-04T06:28:47;4.78;;;1.70;;
40907;SDS011;51055;59.436;24.778;2023-06-04T06:31:15;2.42;;;1.10;;
40907;SDS011;51055;59.436;24.778;2023-06-04T06:33:42;3.35;;;1.30;;
40907;SDS011;51055;59.436;24.778;2023-06-04T06:36:10;4.43;;;1.30;;
40907;SDS011;51055;59.436;24.778;2023-06-04T06:38:40;3.38;;;1.30;;
40907;SDS011;51055;59.436;24.778;2023-06-04T06:41:08;5.67;;;1.50;;
40907;SDS011;51055;59.436;24.778;2023-06-04T06:43:36;2.23;;;1.03;;
40907;SDS011;51055;59.436;24.778;2023-06-04T06:46:04;5.07;;;1.90;;
40907;SDS011;51055;59.436;24.778;2023-06-04T06:48:31;5.07;;;1.50;;
40907;SDS011;51055;59.436;24.778;2023-06-04T06:50:59;4.88;;;1.40;;
40907;SDS011;51055;59.436;24.778;2023-06-04T06:53:27;3.85;;;1.45;;
40907;SDS011;51055;59.436;24.778;2023-06-04T06:55:54;5.25;;;1.63;;
40907;SDS011;51055;59.436;24.778;2023-06-04T06:58:22;5.63;;;1.40;;
40907;SDS011;51055;59.436;24.778;2023-06-04T07:00:50;6.55;;;2.85;;
40907;SDS011;51055;59.436;24.778;2023-06-04T07:03:18;2.85;;;1.35;;
40907;SDS011;51055;59.436;24.778;2023-06-04T07:05:46;4.33;;;1.20;;
40907;SDS011;51055;59.436;24.778;2023-06-04T07:08:14;4.05;;;1.15;;
40907;SDS011;51055;59.436;24.778;2023-06-04T07:10:41;2.60;;;1.05;;
40907;SDS011;51055;59.436;24.778;2023-06-04T07:13:09;3.30;;;1.17;;
40907;SDS011;51055;59.436;24.778;2023-06-04T07:15:37;2.70;;;1.10;;
40907;SDS011;51055;59.436;24.778;2023-06-04T07:18:04;4.03;;;1.30;;
40907;SDS011;51055;59.436;24.778;2023-06-04T07:20:32;3.23;;;1.27;;
40907;SDS011;51055;59.436;24.778;2023-06-04T07:23:00;2.00;;;1.00;;
40907;SDS011;51055;59.436;24.778;2023-06-04T07:25:28;2.83;;;1.00;;
40907;SDS011;51055;59.436;24.778;2023-06-04T07:27:55;2.55;;;1.08;;
40907;SDS011;51055;59.436;24.778;2023-06-04T07:30:26;4.00;;;1.10;;
40907;SDS011;51055;59.436;24.778;2023-06-04T07:32:54;2.90;;;1.20;;
40907;SDS011;51055;59.436;24.778;2023-06-04T07:35:21;2.72;;;1.00;;
40907;SDS011;51055;59.436;24.778;2023-06-04T07:37:49;3.80;;;1.30;;
40907;SDS011;51055;59.436;24.778;2023-06-04T07:40:17;3.88;;;1.67;;
40907;SDS011;51055;59.436;24.778;2023-06-04T07:42:45;6.78;;;1.30;;
40907;SDS011;51055;59.436;24.778;2023-06-04T07:45:16;3.55;;;1.30;;
40907;SDS011;51055;59.436;24.778;2023-06-04T07:47:44;2.97;;;1.13;;
40907;SDS011;51055;59.436;24.778;2023-06-04T07:50:12;3.00;;;1.30;;
40907;SDS011;51055;59.436;24.778;2023-06-04T07:52:40;3.15;;;1.10;;
40907;SDS011;51055;59.436;24.778;2023-06-04T07:55:08;2.83;;;1.05;;
40907;SDS011;51055;59.436;24.778;2023-06-04T07:57:35;2.30;;;0.77;;
40907;SDS011;51055;59.436;24.778;2023-06-04T08:00:03;3.47;;;1.10;;
40907;SDS011;51055;59.436;24.778;2023-06-04T08:02:33;3.13;;;1.20;;
40907;SDS011;51055;59.436;24.778;2023-06-04T08:05:01;5.00;;;1.40;;
40907;SDS011;51055;59.436;24.778;2023-06-04T08:07:30;4.15;;;1.20;;
40907;SDS011;51055;59.436;24.778;2023-06-04T08:09:58;2.55;;;1.10;;
40907;SDS011;51055;59.436;24.778;2023-06-04T08:12:25;3.13;;;1.33;;
40907;SDS011;51055;59.436;24.778;2023-06-04T08:14:53;3.13;;;1.20;;
40907;SDS011;51055;59.436;24.778;2023-06-04T08:17:24;2.85;;;1.00;;
40907;SDS011;51055;59.436;24.778;2023-06-04T08:19:52;2.95;;;1.30;;
40907;SDS011;51055;59.436;24.778;2023-06-04T08:22:19;2.63;;;1.20;;
40907;SDS011;51055;59.436;24.778;2023-06-04T08:24:47;3.40;;;1.20;;
40907;SDS011;51055;59.436;24.778;2023-06-04T08:27:15;4.47;;;1.40;;
40907;SDS011;51055;59.436;24.778;2023-06-04T08:29:44;3.10;;;1.17;;
40907;SDS011;51055;59.436;24.778;2023-06-04T08:32:12;3.88;;;1.50;;
40907;SDS011;51055;59.436;24.778;2023-06-04T08:34:40;3.25;;;1.30;;
40907;SDS011;51055;59.436;24.778;2023-06-04T08:37:08;5.80;;;1.30;;
40907;SDS011;51055;59.436;24.778;2023-06-04T08:39:35;3.37;;;1.40;;
40907;SDS011;51055;59.436;24.778;2023-06-04T08:42:04;3.95;;;1.42;;
40907;SDS011;51055;59.436;24.778;2023-06-04T08:44:34;2.85;;;1.17;;
40907;SDS011;51055;59.436;24.778;2023-06-04T08:47:03;3.88;;;1.30;;
40907;SDS011;51055;59.436;24.778;2023-06-04T08:49:33;2.95;;;1.20;;
40907;SDS011;51055;59.436;24.778;2023-06-04T08:52:03;2.83;;;0.90;;
40907;SDS011;51055;59.436;24.778;2023-06-04T08:54:31;2.80;;;0.83;;
40907;SDS011;51055;59.436;24.778;2023-06-04T08:57:00;1.45;;;0.90;;
40907;SDS011;51055;59.436;24.778;2023-06-04T08:59:29;2.45;;;0.98;;
40907;SDS011;51055;59.436;24.778;2023-06-04T09:01:56;3.90;;;1.10;;
40907;SDS011;51055;59.436;24.778;2023-06-04T09:04:27;2.90;;;0.98;;
40907;SDS011;51055;59.436;24.778;2023-06-04T09:06:56;2.95;;;0.77;;
40907;SDS011;51055;59.436;24.778;2023-06-04T09:09:28;2.47;;;0.82;;
40907;SDS011;51055;59.436;24.778;2023-06-04T09:11:57;2.67;;;0.88;;
40907;SDS011;51055;59.436;24.778;2023-06-04T09:14:25;3.67;;;1.25;;
40907;SDS011;51055;59.436;24.778;2023-06-04T09:16:54;2.80;;;1.10;;
40907;SDS011;51055;59.436;24.778;2023-06-04T09:19:25;2.28;;;0.90;;
40907;SDS011;51055;59.436;24.778;2023-06-04T09:21:57;6.97;;;1.25;;
40907;SDS011;51055;59.436;24.778;2023-06-04T09:24:37;3.22;;;1.08;;
40907;SDS011;51055;59.436;24.778;2023-06-04T09:27:09;3.55;;;1.00;;
40907;SDS011;51055;59.436;24.778;2023-06-04T09:29:39;2.20;;;0.90;;
40907;SDS011;51055;59.436;24.778;2023-06-04T09:32:08;4.53;;;0.90;;
40907;SDS011;51055;59.436;24.778;2023-06-04T09:34:36;2.90;;;1.13;;
40907;SDS011;51055;59.436;24.778;2023-06-04T09:37:13;3.97;;;0.90;;
40907;SDS011;51055;59.436;24.778;2023-06-04T09:39:42;2.88;;;1.00;;
40907;SDS011;51055;59.436;24.778;2023-06-04T09:42:10;3.40;;;1.10;;
40907;SDS011;51055;59.436;24.778;2023-06-04T09:44:44;3.85;;;1.10;;
40907;SDS011;51055;59.436;24.778;2023-06-04T09:47:15;3.15;;;0.90;;
40907;SDS011;51055;59.436;24.778;2023-06-04T09:49:44;3.08;;;0.85;;
40907;SDS011;51055;59.436;24.778;2023-06-04T09:52:12;5.65;;;0.80;;
40907;SDS011;51055;59.436;24.778;2023-06-04T09:54:41;2.15;;;0.85;;
40907;SDS011;51055;59.436;24.778;2023-06-04T09:57:15;2.77;;;0.90;;
40907;SDS011;51055;59.436;24.778;2023-06-04T09:59:48;1.55;;;0.73;;
40907;SDS011;51055;59.436;24.778;2023-06-04T10:02:18;3.05;;;0.88;;
40907;SDS011;51055;59.436;24.778;2023-06-04T10:04:53;3.00;;;0.73;;
40907;SDS011;51055;59.436;24.778;2023-06-04T10:07:24;1.40;;;0.70;;
40907;SDS011;51055;59.436;24.778;2023-06-04T10:09:54;2.50;;;0.70;;
40907;SDS011;51055;59.436;24.778;2023-06-04T10:12:23;2.75;;;0.90;;
40907;SDS011;51055;59.436;24.778;2023-06-04T10:14:59;2.97;;;0.70;;
40907;SDS011;51055;59.436;24.778;2023-06-04T10:17:32;2.53;;;0.90;;
40907;SDS011;51055;59.436;24.778;2023-06-04T10:22:31;4.05;;;0.82;;
40907;SDS011;51055;59.436;24.778;2023-06-04T10:24:59;2.60;;;0.70;;
40907;SDS011;51055;59.436;24.778;2023-06-04T10:27:27;3.70;;;0.80;;
40907;SDS011;51055;59.436;24.778;2023-06-04T10:29:55;2.20;;;0.80;;
40907;SDS011;51055;59.436;24.778;2023-06-04T10:32:26;2.70;;;0.73;;
40907;SDS011;51055;59.436;24.778;2023-06-04T10:34:55;3.25;;;0.80;;
40907;SDS011;51055;59.436;24.778;2023-06-04T10:37:25;1.92;;;0.80;;
40907;SDS011;51055;59.436;24.778;2023-06-04T10:39:54;2.65;;;0.70;;
40907;SDS011;51055;59.436;24.778;2023-06-04T10:42:23;3.40;;;0.73;;
40907;SDS011;51055;59.436;24.778;2023-06-04T10:44:52;2.63;;;0.80;;
40907;SDS011;51055;59.436;24.778;2023-06-04T10:47:24;3.58;;;0.80;;
40907;SDS011;51055;59.436;24.778;2023-06-04T10:49:54;2.22;;;0.80;;
40907;SDS011;51055;59.436;24.778;2023-06-04T10:52:22;1.75;;;0.52;;
40907;SDS011;51055;59.436;24.778;2023-06-04T10:54:50;3.58;;;0.70;;
40907;SDS011;51055;59.436;24.778;2023-06-04T10:57:21;2.22;;;0.90;;
40907;SDS011;51055;59.436;24.778;2023-06-04T10:59:58;2.90;;;0.70;;
40907;SDS011;51055;59.436;24.778;2023-06-04T11:02:27;2.08;;;0.77;;
40907;SDS011;51055;59.436;24.778;2023-06-04T11:05:01;1.83;;;0.65;;
40907;SDS011;51055;59.436;24.778;2023-06-04T11:07:42;2.63;;;0.60;;
40907;SDS011;51055;59.436;24.778;2023-06-04T11:10:11;2.20;;;0.70;;
40907;SDS011;51055;59.436;24.778;2023-06-04T11:12:47;3.05;;;1.00;;
40907;SDS011;51055;59.436;24.778;2023-06-04T11:15:18;1.55;;;0.50;;
40907;SDS011;51055;59.436;24.778;2023-06-04T11:17:52;4.20;;;1.00;;
40907;SDS011;51055;59.436;24.778;2023-06-04T11:20:22;2.63;;;0.73;;
40907;SDS011;51055;59.436;24.778;2023-06-04T11:22:56;2.85;;;0.90;;
40907;SDS011;51055;59.436;24.778;2023-06-04T11:25:27;3.33;;;0.93;;
40907;SDS011;51055;59.436;24.778;2023-06-04T11:27:56;1.77;;;0.77;;
40907;SDS011;51055;59.436;24.778;2023-06-04T11:30:25;1.75;;;0.85;;
40907;SDS011;51055;59.436;24.778;2023-06-04T11:33:02;4.28;;;0.82;;
40907;SDS011;51055;59.436;24.778;2023-06-04T11:35:38;2.25;;;0.95;;
40907;SDS011;51055;59.436;24.778;2023-06-04T11:38:08;2.00;;;0.80;;
40907;SDS011;51055;59.436;24.778;2023-06-04T11:40:36;3.10;;;1.00;;
40907;SDS011;51055;59.436;24.778;2023-06-04T11:43:05;3.30;;;0.98;;
40907;SDS011;51055;59.436;24.778;2023-06-04T11:45:33;3.65;;;0.93;;
40907;SDS011;51055;59.436;24.778;2023-06-04T11:48:00;2.42;;;0.70;;
40907;SDS011;51055;59.436;24.778;2023-06-04T11:50:30;2.15;;;0.70;;
40907;SDS011;51055;59.436;24.778;2023-06-04T11:52:58;3.28;;;0.82;;
40907;SDS011;51055;59.436;24.778;2023-06-04T11:55:27;4.03;;;1.00;;
40907;SDS011;51055;59.436;24.778;2023-06-04T11:57:55;4.60;;;0.90;;
40907;SDS011;51055;59.436;24.778;2023-06-04T12:00:23;6.77;;;1.17;;
40907;SDS011;51055;59.436;24.778;2023-06-04T12:02:54;11.77;;;1.00;;
40907;SDS011;51055;59.436;24.778;2023-06-04T12:05:28;5.65;;;1.10;;
40907;SDS011;51055;59.436;24.778;2023-06-04T12:08:04;3.90;;;0.90;;
40907;SDS011;51055;59.436;24.778;2023-06-04T12:10:40;2.75;;;0.98;;
40907;SDS011;51055;59.436;24.778;2023-06-04T12:13:09;1.77;;;0.70;;
40907;SDS011;51055;59.436;24.778;2023-06-04T12:15:37;3.53;;;0.93;;
40907;SDS011;51055;59.436;24.778;2023-06-04T12:18:05;3.15;;;0.90;;
40907;SDS011;51055;59.436;24.778;2023-06-04T12:20:37;1.50;;;0.80;;
40907;SDS011;51055;59.436;24.778;2023-06-04T12:23:06;4.80;;;0.93;;
40907;SDS011;51055;59.436;24.778;2023-06-04T12:25:34;3.50;;;0.95;;
40907;SDS011;51055;59.436;24.778;2023-06-04T12:28:05;1.80;;;0.63;;
40907;SDS011;51055;59.436;24.778;2023-06-04T12:30:39;4.30;;;0.85;;
40907;SDS011;51055;59.436;24.778;2023-06-04T12:33:08;2.88;;;0.80;;
40907;SDS011;51055;59.436;24.778;2023-06-04T12:35:37;9.32;;;1.20;;
40907;SDS011;51055;59.436;24.778;2023-06-04T12:38:05;2.92;;;0.80;;
40907;SDS011;51055;59.436;24.778;2023-06-04T12:40:36;2.10;;;0.80;;
40907;SDS011;51055;59.436;24.778;2023-06-04T12:43:05;3.75;;;0.90;;
40907;SDS011;51055;59.436;24.778;2023-06-04T12:45:33;2.97;;;0.85;;
40907;SDS011;51055;59.436;24.778;2023-06-04T12:48:01;8.82;;;0.95;;
40907;SDS011;51055;59.436;24.778;2023-06-04T12:50:29;2.37;;;0.90;;
40907;SDS011;51055;59.436;24.778;2023-06-04T12:52:56;6.55;;;1.15;;
40907;SDS011;51055;59.436;24.778;2023-06-04T12:55:24;3.47;;;1.00;;
40907;SDS011;51055;59.436;24.778;2023-06-04T12:57:54;2.58;;;0.80;;
40907;SDS011;51055;59.436;24.778;2023-06-04T13:00:22;3.58;;;1.20;;
40907;SDS011;51055;59.436;24.778;2023-06-04T13:02:50;2.30;;;0.98;;
40907;SDS011;51055;59.436;24.778;2023-06-04T13:05:18;7.07;;;1.08;;
40907;SDS011;51055;59.436;24.778;2023-06-04T13:07:46;3.92;;;0.75;;
40907;SDS011;51055;59.436;24.778;2023-06-04T13:10:14;1.95;;;0.80;;
40907;SDS011;51055;59.436;24.778;2023-06-04T13:12:41;1.80;;;0.80;;
40907;SDS011;51055;59.436;24.778;2023-06-04T13:15:09;5.10;;;1.27;;
40907;SDS011;51055;59.436;24.778;2023-06-04T13:17:37;4.33;;;1.27;;
40907;SDS011;51055;59.436;24.778;2023-06-04T13:20:05;2.97;;;0.95;;
40907;SDS011;51055;59.436;24.778;2023-06-04T13:22:34;4.38;;;0.90;;
40907;SDS011;51055;59.436;24.778;2023-06-04T13:25:01;5.45;;;0.80;;
40907;SDS011;51055;59.436;24.778;2023-06-04T13:27:29;2.23;;;0.87;;
40907;SDS011;51055;59.436;24.778;2023-06-04T13:29:57;1.33;;;0.73;;
40907;SDS011;51055;59.436;24.778;2023-06-04T13:32:25;2.30;;;0.90;;
40907;SDS011;51055;59.436;24.778;2023-06-04T13:34:52;2.15;;;0.80;;
40907;SDS011;51055;59.436;24.778;2023-06-04T13:37:20;2.78;;;1.00;;
40907;SDS011;51055;59.436;24.778;2023-06-04T13:39:48;2.30;;;1.03;;
40907;SDS011;51055;59.436;24.778;2023-06-04T13:42:16;1.88;;;0.70;;
40907;SDS011;51055;59.436;24.778;2023-06-04T13:44:43;2.95;;;0.90;;
40907;SDS011;51055;59.436;24.778;2023-06-04T13:47:11;2.40;;;0.73;;
40907;SDS011;51055;59.436;24.778;2023-06-04T13:49:38;6.43;;;0.95;;
40907;SDS011;51055;59.436;24.778;2023-06-04T13:52:05;3.70;;;1.10;;
40907;SDS011;51055;59.436;24.778;2023-06-04T13:54:33;5.82;;;0.90;;
40907;SDS011;51055;59.436;24.778;2023-06-04T13:57:01;2.95;;;0.95;;
40907;SDS011;51055;59.436;24.778;2023-06-04T13:59:31;2.90;;;0.70;;
40907;SDS011;51055;59.436;24.778;2023-06-04T14:01:59;4.45;;;1.27;;
40907;SDS011;51055;59.436;24.778;2023-06-04T14:04:26;2.63;;;0.82;;
40907;SDS011;51055;59.436;24.778;2023-06-04T14:06:54;4.43;;;0.93;;
40907;SDS011;51055;59.436;24.778;2023-06-04T14:09:21;1.38;;;0.65;;
40907;SDS011;51055;59.436;24.778;2023-06-04T14:11:49;4.75;;;0.80;;
40907;SDS011;51055;59.436;24.778;2023-06-04T14:14:18;1.98;;;0.85;;
40907;SDS011;51055;59.436;24.778;2023-06-04T14:16:45;1.48;;;0.70;;
40907;SDS011;51055;59.436;24.778;2023-06-04T14:19:14;1.58;;;0.68;;
40907;SDS011;51055;59.436;24.778;2023-06-04T14:21:42;1.60;;;0.73;;
40907;SDS011;51055;59.436;24.778;2023-06-04T14:24:10;1.67;;;0.85;;
40907;SDS011;51055;59.436;24.778;2023-06-04T14:26:38;1.57;;;0.80;;
40907;SDS011;51055;59.436;24.778;2023-06-04T14:29:06;1.23;;;0.50;;
40907;SDS011;51055;59.436;24.778;2023-06-04T14:31:33;1.60;;;0.70;;
40907;SDS011;51055;59.436;24.778;2023-06-04T14:34:01;2.28;;;0.80;;
40907;SDS011;51055;59.436;24.778;2023-06-04T14:36:29;4.35;;;0.80;;
40907;SDS011;51055;59.436;24.778;2023-06-04T14:38:57;1.63;;;0.90;;
40907;SDS011;51055;59.436;24.778;2023-06-04T14:41:25;1.00;;;0.70;;
40907;SDS011;51055;59.436;24.778;2023-06-04T14:43:54;2.47;;;0.90;;
40907;SDS011;51055;59.436;24.778;2023-06-04T14:46:22;1.50;;;0.82;;
40907;SDS011;51055;59.436;24.778;2023-06-04T14:48:50;2.60;;;0.73;;
40907;SDS011;51055;59.436;24.778;2023-06-04T14:51:17;3.05;;;1.00;;